Time;durP1;ratioP1;P1;durP2;ratioP2;P2;SDS_P1;SDS_P2;PMS_P1;PMS_P2;Temp;Humidity;BMP_temperature;BMP_pressure;BME280_temperature;BME280_humidity;BME280_pressure;Samples;Min_cycle;Max_cycle;Signal;HPM_P1;HPM_P2
2022/06/09 00:00:31;;;;;;;2.00;1.00;;;;;;;;;;5053709;28;20474;-80
2022/06/09 00:03:00;;;;;;;1.03;0.93;;;;;;;;;;5053476;28;20449;-80
2022/06/09 00:05:28;;;;;;;1.47;0.90;;;;;;;;;;5054297;28;20446;-81
2022/06/09 00:07:56;;;;;;;0.70;0.70;;;;;;;;;;5053836;28;20523;-81
2022/06/09 00:10:27;;;;;;;1.53;1.00;;;;;;;;;;5054882;28;20803;-81
2022/06/09 00:12:54;;;;;;;1.30;1.30;;;;;;;;;;5053616;28;20457;-81
2022/06/09 00:15:21;;;;;;;1.37;1.30;;;;;;;;;;5054484;28;20956;-81
2022/06/09 00:17:50;;;;;;;0.93;0.90;;;;;;;;;;5058155;28;20472;-81
2022/06/09 00:20:17;;;;;;;1.07;0.83;;;;;;;;;;5057862;28;20552;-81
2022/06/09 00:22:45;;;;;;;1.00;1.00;;;;;;;;;;5057349;28;20437;-81
2022/06/09 00:25:12;;;;;;;0.90;0.90;;;;;;;;;;5057618;28;20440;-81
2022/06/09 00:27:39;;;;;;;0.80;0.80;;;;;;;;;;5057082;28;20587;-80
2022/06/09 00:30:07;;;;;;;0.90;0.90;;;;;;;;;;5057702;28;20465;-81
2022/06/09 00:32:34;;;;;;;0.93;0.93;;;;;;;;;;5058371;28;20463;-81
2022/06/09 00:35:02;;;;;;;1.00;1.00;;;;;;;;;;5057636;28;20453;-81
2022/06/09 00:37:30;;;;;;;1.33;0.90;;;;;;;;;;5058202;28;20446;-81
2022/06/09 00:39:57;;;;;;;1.17;1.07;;;;;;;;;;5058143;28;20474;-80
2022/06/09 00:42:24;;;;;;;0.60;0.60;;;;;;;;;;5057526;28;20452;-82
2022/06/09 00:44:51;;;;;;;1.13;1.03;;;;;;;;;;5057449;28;20449;-82
2022/06/09 00:47:21;;;;;;;0.70;0.70;;;;;;;;;;5057146;28;20485;-80
2022/06/09 00:49:52;;;;;;;0.97;0.97;;;;;;;;;;5057952;28;20548;-81
2022/06/09 00:52:23;;;;;;;0.80;0.80;;;;;;;;;;5058311;28;20928;-81
2022/06/09 00:54:51;;;;;;;0.90;0.90;;;;;;;;;;5058130;28;20425;-81
2022/06/09 00:57:19;;;;;;;0.93;0.93;;;;;;;;;;5059035;28;20457;-80
2022/06/09 00:59:48;;;;;;;0.90;0.80;;;;;;;;;;5068754;28;20980;-81
2022/06/09 01:02:18;;;;;;;0.80;0.70;;;;;;;;;;5061342;28;20441;-81
2022/06/09 01:04:45;;;;;;;0.93;0.83;;;;;;;;;;5056478;28;20421;-82
2022/06/09 01:07:15;;;;;;;1.03;0.80;;;;;;;;;;5057150;28;20477;-82
2022/06/09 01:09:43;;;;;;;2.00;0.93;;;;;;;;;;5057490;28;20572;-81
2022/06/09 01:12:24;;;;;;;2.00;1.20;;;;;;;;;;5058373;28;20450;-79
2022/06/09 01:14:51;;;;;;;0.80;0.80;;;;;;;;;;5058119;28;20452;-81
2022/06/09 01:17:25;;;;;;;0.67;0.67;;;;;;;;;;5058084;28;20793;-82
2022/06/09 01:20:00;;;;;;;4.03;1.27;;;;;;;;;;5058758;28;20834;-81
2022/06/09 01:22:46;;;;;;;1.00;0.90;;;;;;;;;;5059332;28;20897;-81
2022/06/09 01:25:26;;;;;;;0.97;0.97;;;;;;;;;;5058166;28;20453;-81
2022/06/09 01:28:02;;;;;;;0.80;0.63;;;;;;;;;;5056693;28;20543;-80
2022/06/09 01:30:43;;;;;;;1.40;0.97;;;;;;;;;;5058433;28;20460;-80
2022/06/09 01:33:13;;;;;;;1.07;0.80;;;;;;;;;;5057977;28;20422;-82
2022/06/09 01:35:44;;;;;;;0.77;0.77;;;;;;;;;;5058522;28;20429;-82
2022/06/09 01:38:11;;;;;;;0.90;0.50;;;;;;;;;;5058502;28;20446;-81
2022/06/09 01:40:38;;;;;;;1.60;0.57;;;;;;;;;;5068443;28;20492;-81
2022/06/09 01:43:06;;;;;;;0.70;0.70;;;;;;;;;;5069189;28;20442;-80
2022/06/09 01:45:37;;;;;;;1.53;0.80;;;;;;;;;;5058415;28;20457;-81
2022/06/09 01:48:08;;;;;;;0.63;0.63;;;;;;;;;;5057915;28;20491;-80
2022/06/09 01:50:37;;;;;;;0.70;0.70;;;;;;;;;;5057522;28;20501;-80
2022/06/09 01:53:08;;;;;;;1.00;1.00;;;;;;;;;;5057266;28;20449;-81
2022/06/09 01:55:36;;;;;;;1.87;1.00;;;;;;;;;;5057205;28;20453;-81
2022/06/09 01:58:05;;;;;;;1.07;0.97;;;;;;;;;;5057086;28;20437;-81
2022/06/09 02:00:32;;;;;;;1.00;0.90;;;;;;;;;;5057400;28;21221;-81
2022/06/09 02:03:03;;;;;;;1.20;1.20;;;;;;;;;;5057370;28;20452;-81
2022/06/09 02:05:33;;;;;;;1.10;1.03;;;;;;;;;;5057661;28;20540;-82
2022/06/09 02:08:02;;;;;;;8.73;1.77;;;;;;;;;;5057451;28;20477;-81
2022/06/09 02:10:31;;;;;;;2.30;1.30;;;;;;;;;;5057605;28;20473;-81
2022/06/09 02:13:01;;;;;;;1.30;1.23;;;;;;;;;;5056732;28;20443;-82
2022/06/09 02:15:30;;;;;;;3.10;1.40;;;;;;;;;;5057222;28;20491;-80
2022/06/09 02:17:57;;;;;;;1.37;1.27;;;;;;;;;;5056623;28;20437;-81
2022/06/09 02:20:25;;;;;;;2.20;1.23;;;;;;;;;;5056740;28;20465;-81
2022/06/09 02:22:54;;;;;;;1.67;1.13;;;;;;;;;;5056450;28;20476;-80
2022/06/09 02:25:21;;;;;;;3.00;1.37;;;;;;;;;;5057095;28;20446;-81
2022/06/09 02:27:48;;;;;;;1.70;1.60;;;;;;;;;;5056762;28;20470;-81
2022/06/09 02:30:15;;;;;;;1.53;1.40;;;;;;;;;;5056821;28;20465;-81
2022/06/09 02:32:42;;;;;;;1.63;1.20;;;;;;;;;;5056139;28;20476;-81
2022/06/09 02:35:09;;;;;;;2.07;1.30;;;;;;;;;;5055965;28;20445;-80
2022/06/09 02:37:36;;;;;;;1.60;1.50;;;;;;;;;;5056062;28;20438;-81
2022/06/09 02:40:05;;;;;;;2.13;1.30;;;;;;;;;;5056124;28;20454;-81
2022/06/09 02:42:32;;;;;;;1.63;1.53;;;;;;;;;;5056299;28;20430;-81
2022/06/09 02:45:02;;;;;;;3.60;1.90;;;;;;;;;;5056177;28;20449;-80
2022/06/09 02:47:30;;;;;;;2.30;1.70;;;;;;;;;;5055932;28;20469;-81
2022/06/09 02:49:57;;;;;;;2.13;1.50;;;;;;;;;;5058065;28;20457;-80
2022/06/09 02:52:24;;;;;;;1.73;1.50;;;;;;;;;;5056172;28;20433;-80
2022/06/09 02:54:51;;;;;;;3.20;1.63;;;;;;;;;;5053746;28;20496;-81
2022/06/09 02:57:19;;;;;;;2.33;1.40;;;;;;;;;;5056289;28;20820;-80
2022/06/09 02:59:46;;;;;;;1.40;1.30;;;;;;;;;;5057386;28;21135;-80
2022/06/09 03:02:13;;;;;;;1.80;1.70;;;;;;;;;;5053465;28;20507;-81
2022/06/09 03:04:40;;;;;;;3.00;1.60;;;;;;;;;;5054252;28;20491;-81
2022/06/09 03:07:07;;;;;;;1.70;1.60;;;;;;;;;;5053904;28;20430;-81
2022/06/09 03:09:34;;;;;;;1.60;1.50;;;;;;;;;;5054081;28;20462;-80
2022/06/09 03:12:02;;;;;;;1.70;1.37;;;;;;;;;;5054406;28;20495;-81
2022/06/09 03:14:30;;;;;;;3.70;2.00;;;;;;;;;;5054412;28;20449;-81
2022/06/09 03:16:57;;;;;;;3.03;1.77;;;;;;;;;;5055251;28;20844;-81
2022/06/09 03:19:24;;;;;;;1.97;1.63;;;;;;;;;;5054840;28;20453;-80
2022/06/09 03:21:51;;;;;;;3.77;2.10;;;;;;;;;;5054969;28;20531;-82
2022/06/09 03:24:18;;;;;;;2.33;1.80;;;;;;;;;;5059225;28;20449;-81
2022/06/09 03:26:45;;;;;;;2.07;1.97;;;;;;;;;;5063342;28;20511;-80
2022/06/09 03:29:12;;;;;;;2.50;1.80;;;;;;;;;;5063385;28;20539;-80
2022/06/09 03:31:40;;;;;;;3.80;2.10;;;;;;;;;;5063291;28;20437;-79
2022/06/09 03:34:07;;;;;;;3.83;2.00;;;;;;;;;;5063184;28;20449;-80
2022/06/09 03:36:34;;;;;;;2.30;2.10;;;;;;;;;;5064378;28;20446;-81
2022/06/09 03:39:02;;;;;;;2.67;1.87;;;;;;;;;;5060666;28;20465;-81
2022/06/09 03:41:29;;;;;;;2.53;2.33;;;;;;;;;;5053935;28;20904;-81
2022/06/09 03:43:56;;;;;;;2.67;1.77;;;;;;;;;;5053827;28;20442;-82
2022/06/09 03:46:23;;;;;;;5.60;1.87;;;;;;;;;;5054491;28;20777;-81
2022/06/09 03:48:51;;;;;;;2.53;2.20;;;;;;;;;;5053758;28;20486;-80
2022/06/09 03:51:18;;;;;;;3.40;2.30;;;;;;;;;;5053319;28;20964;-79
2022/06/09 03:53:45;;;;;;;3.63;2.27;;;;;;;;;;5053931;28;20453;-81
2022/06/09 03:56:13;;;;;;;5.10;2.30;;;;;;;;;;5053962;28;20515;-81
2022/06/09 03:58:41;;;;;;;3.27;2.60;;;;;;;;;;5053492;28;20539;-81
2022/06/09 04:01:08;;;;;;;5.23;2.53;;;;;;;;;;5053576;28;20530;-80
2022/06/09 04:03:35;;;;;;;4.90;2.23;;;;;;;;;;5054386;28;20445;-81
2022/06/09 04:06:03;;;;;;;2.97;2.10;;;;;;;;;;5054344;28;20508;-81
2022/06/09 04:08:30;;;;;;;3.20;2.50;;;;;;;;;;5055286;28;20485;-80
2022/06/09 04:10:57;;;;;;;3.83;2.40;;;;;;;;;;5053842;28;20567;-80
2022/06/09 04:13:24;;;;;;;2.80;2.37;;;;;;;;;;5054071;28;20956;-80
2022/06/09 04:15:51;;;;;;;2.50;2.03;;;;;;;;;;5054450;28;20441;-80
2022/06/09 04:18:18;;;;;;;4.30;2.40;;;;;;;;;;5054516;28;20434;-81
2022/06/09 04:20:46;;;;;;;2.63;1.70;;;;;;;;;;5053761;28;20446;-80
2022/06/09 04:23:14;;;;;;;5.80;2.50;;;;;;;;;;5051275;28;20941;-82
2022/06/09 04:25:41;;;;;;;2.73;2.43;;;;;;;;;;5034918;28;20458;-80
2022/06/09 04:28:08;;;;;;;3.37;2.20;;;;;;;;;;5054548;28;20473;-81
2022/06/09 04:30:35;;;;;;;4.20;2.53;;;;;;;;;;5053890;28;20522;-81
2022/06/09 04:33:02;;;;;;;3.00;2.80;;;;;;;;;;5053502;28;20432;-82
2022/06/09 04:35:29;;;;;;;3.00;2.13;;;;;;;;;;5053949;28;20430;-80
2022/06/09 04:38:03;;;;;;;4.37;2.47;;;;;;;;;;5054317;28;20456;-82
2022/06/09 04:40:32;;;;;;;3.03;2.60;;;;;;;;;;5054468;28;20555;-80
2022/06/09 04:42:59;;;;;;;2.40;2.20;;;;;;;;;;5053007;28;21017;-82
2022/06/09 04:45:26;;;;;;;3.87;2.10;;;;;;;;;;5052860;28;20461;-79
2022/06/09 04:47:53;;;;;;;3.53;2.53;;;;;;;;;;5054212;28;20508;-80
2022/06/09 04:50:21;;;;;;;4.13;2.27;;;;;;;;;;5053039;28;20465;-80
2022/06/09 04:52:48;;;;;;;2.87;2.67;;;;;;;;;;5052704;28;20864;-80
2022/06/09 04:55:16;;;;;;;3.30;2.43;;;;;;;;;;5052223;28;20460;-80
2022/06/09 04:57:45;;;;;;;2.87;2.10;;;;;;;;;;5052126;28;20906;-82
2022/06/09 05:00:14;;;;;;;3.90;2.07;;;;;;;;;;5052952;28;20657;-81
2022/06/09 05:02:41;;;;;;;4.17;2.73;;;;;;;;;;5056449;28;20454;-80
2022/06/09 05:05:10;;;;;;;2.77;2.00;;;;;;;;;;5057552;28;20449;-79
2022/06/09 05:07:37;;;;;;;3.43;2.10;;;;;;;;;;5056884;28;20441;-81
2022/06/09 05:10:04;;;;;;;2.30;2.10;;;;;;;;;;5057144;28;20496;-80
2022/06/09 05:12:31;;;;;;;2.90;1.93;;;;;;;;;;5056194;28;20460;-81
2022/06/09 05:14:59;;;;;;;2.93;2.03;;;;;;;;;;5056152;28;20503;-81
2022/06/09 05:17:27;;;;;;;2.90;2.40;;;;;;;;;;5056602;28;20491;-81
2022/06/09 05:19:59;;;;;;;2.43;2.23;;;;;;;;;;5055669;28;20462;-81
2022/06/09 05:22:39;;;;;;;2.53;2.03;;;;;;;;;;5055535;28;20861;-80
2022/06/09 05:25:08;;;;;;;4.40;2.43;;;;;;;;;;5058722;28;20461;-80
2022/06/09 05:27:37;;;;;;;2.20;2.00;;;;;;;;;;5058321;28;20529;-80
2022/06/09 05:30:08;;;;;;;4.97;1.90;;;;;;;;;;5055174;28;20469;-81
2022/06/09 05:32:38;;;;;;;2.83;1.97;;;;;;;;;;5055619;28;20449;-82
2022/06/09 05:35:06;;;;;;;3.73;2.10;;;;;;;;;;5056178;28;20454;-82
2022/06/09 05:45:45;;;;;;;2.40;2.00;;;;;;;;;;5055139;28;20443;-81
2022/06/09 05:48:12;;;;;;;3.33;2.00;;;;;;;;;;5061198;28;20537;-81
2022/06/09 05:50:40;;;;;;;3.17;1.80;;;;;;;;;;5066961;28;20504;-81
2022/06/09 05:53:07;;;;;;;3.63;2.27;;;;;;;;;;5054558;28;20425;-81
2022/06/09 05:55:34;;;;;;;4.40;2.20;;;;;;;;;;5054554;28;20867;-81
2022/06/09 05:58:01;;;;;;;3.83;2.17;;;;;;;;;;5058938;28;20446;-81
2022/06/09 06:00:28;;;;;;;2.53;1.70;;;;;;;;;;5054838;28;20474;-80
2022/06/09 06:02:57;;;;;;;3.60;3.07;;;;;;;;;;5054328;28;20438;-82
2022/06/09 06:08:09;;;;;;;4.40;2.03;;;;;;;;;;5054368;28;20456;-80
2022/06/09 06:10:36;;;;;;;2.67;1.90;;;;;;;;;;5054510;28;21042;-80
2022/06/09 06:13:03;;;;;;;4.17;1.90;;;;;;;;;;5053663;28;20442;-81
2022/06/09 06:15:31;;;;;;;1.60;1.50;;;;;;;;;;5054329;28;20795;-80
2022/06/09 06:18:02;;;;;;;3.93;2.10;;;;;;;;;;5054088;28;20499;-82
2022/06/09 06:20:29;;;;;;;2.00;1.80;;;;;;;;;;5054754;28;20450;-81
2022/06/09 06:22:56;;;;;;;2.93;1.90;;;;;;;;;;5066666;28;20459;-81
2022/06/09 06:25:24;;;;;;;2.37;2.10;;;;;;;;;;5076202;28;20433;-82
2022/06/09 06:27:51;;;;;;;2.33;2.13;;;;;;;;;;5074654;28;20461;-80
2022/06/09 06:30:18;;;;;;;1.60;1.50;;;;;;;;;;5075012;28;20477;-82
2022/06/09 06:32:46;;;;;;;2.23;1.70;;;;;;;;;;5075930;28;20446;-80
2022/06/09 06:35:15;;;;;;;3.30;1.80;;;;;;;;;;5075394;28;20441;-81
2022/06/09 06:37:42;;;;;;;3.07;2.00;;;;;;;;;;5068910;28;20449;-82
2022/06/09 06:40:10;;;;;;;4.80;1.67;;;;;;;;;;5056941;28;20465;-82
2022/06/09 06:42:38;;;;;;;2.10;1.70;;;;;;;;;;5056659;28;20446;-81
2022/06/09 06:45:05;;;;;;;2.87;2.00;;;;;;;;;;5056153;28;20941;-81
2022/06/09 06:47:32;;;;;;;4.87;2.00;;;;;;;;;;5055497;28;20450;-80
2022/06/09 06:49:59;;;;;;;4.73;2.60;;;;;;;;;;5055996;28;20508;-80
2022/06/09 06:52:28;;;;;;;5.50;2.20;;;;;;;;;;5057042;28;20430;-80
2022/06/09 06:54:55;;;;;;;2.60;1.80;;;;;;;;;;5055041;28;20493;-81
2022/06/09 06:57:22;;;;;;;4.53;1.97;;;;;;;;;;5054570;28;20449;-81
2022/06/09 06:59:50;;;;;;;4.90;1.97;;;;;;;;;;5055438;28;20879;-80
2022/06/09 07:02:18;;;;;;;4.40;2.00;;;;;;;;;;5056105;28;20463;-79
2022/06/09 07:04:45;;;;;;;4.13;1.80;;;;;;;;;;5054260;28;20515;-81
2022/06/09 07:07:12;;;;;;;2.63;1.60;;;;;;;;;;5055720;28;20449;-81
2022/06/09 07:09:40;;;;;;;6.43;1.87;;;;;;;;;;5055694;28;20857;-80
2022/06/09 07:12:08;;;;;;;2.50;1.50;;;;;;;;;;5054742;28;20949;-81
2022/06/09 07:14:35;;;;;;;2.03;1.87;;;;;;;;;;5054475;28;20450;-80
2022/06/09 07:17:03;;;;;;;3.83;1.83;;;;;;;;;;5054443;28;20492;-81
2022/06/09 07:19:30;;;;;;;2.60;1.70;;;;;;;;;;5055464;28;20465;-80
2022/06/09 07:21:58;;;;;;;5.40;2.33;;;;;;;;;;5055119;28;20921;-81
2022/06/09 07:24:26;;;;;;;6.33;2.37;;;;;;;;;;5054893;28;21119;-82
2022/06/09 07:26:54;;;;;;;2.80;1.70;;;;;;;;;;5054669;28;20476;-81
2022/06/09 07:29:21;;;;;;;3.80;1.40;;;;;;;;;;5054817;28;20489;-81
2022/06/09 07:31:49;;;;;;;6.00;1.37;;;;;;;;;;5053436;28;20434;-81
2022/06/09 07:34:16;;;;;;;4.97;1.60;;;;;;;;;;5053275;28;20445;-80
2022/06/09 07:36:43;;;;;;;3.90;1.30;;;;;;;;;;5054635;28;20479;-81
2022/06/09 07:39:11;;;;;;;4.83;2.03;;;;;;;;;;5052328;28;20515;-80
2022/06/09 07:41:38;;;;;;;6.20;1.50;;;;;;;;;;5053405;28;20514;-80
2022/06/09 07:44:07;;;;;;;3.73;1.40;;;;;;;;;;5052577;28;20457;-81
2022/06/09 07:46:35;;;;;;;4.77;1.97;;;;;;;;;;5053312;28;20426;-80
2022/06/09 07:49:02;;;;;;;4.13;1.67;;;;;;;;;;5052260;28;20478;-81
2022/06/09 07:51:30;;;;;;;3.33;2.00;;;;;;;;;;5052360;28;20453;-80
2022/06/09 07:53:58;;;;;;;3.40;1.50;;;;;;;;;;5054263;28;20552;-81
2022/06/09 07:56:25;;;;;;;3.90;1.63;;;;;;;;;;5053302;28;20457;-80
2022/06/09 07:58:52;;;;;;;3.53;1.63;;;;;;;;;;5052369;28;20927;-81
2022/06/09 08:01:22;;;;;;;5.60;1.77;;;;;;;;;;5053721;28;20450;-81
2022/06/09 08:03:49;;;;;;;4.70;1.33;;;;;;;;;;5052932;28;20566;-80
2022/06/09 08:06:16;;;;;;;2.73;1.37;;;;;;;;;;5053508;28;20956;-80
2022/06/09 08:08:44;;;;;;;3.20;1.47;;;;;;;;;;5053759;28;20476;-82
2022/06/09 08:11:11;;;;;;;4.53;1.80;;;;;;;;;;5053126;28;20446;-80
2022/06/09 08:13:38;;;;;;;5.03;1.73;;;;;;;;;;5052498;28;20479;-81
2022/06/09 08:16:05;;;;;;;4.63;1.90;;;;;;;;;;5052549;28;20799;-81
2022/06/09 08:18:34;;;;;;;5.60;1.43;;;;;;;;;;5053107;28;20499;-80
2022/06/09 08:21:01;;;;;;;6.87;2.50;;;;;;;;;;5053651;28;20548;-81
2022/06/09 08:23:29;;;;;;;4.90;1.90;;;;;;;;;;5053420;28;20488;-80
2022/06/09 08:25:58;;;;;;;3.03;1.40;;;;;;;;;;5053201;28;20493;-80
2022/06/09 08:28:26;;;;;;;1.80;1.37;;;;;;;;;;5053311;28;20457;-80
2022/06/09 08:30:55;;;;;;;3.60;1.50;;;;;;;;;;5053695;28;20477;-80
2022/06/09 08:33:22;;;;;;;3.33;1.43;;;;;;;;;;5053101;28;20933;-82
2022/06/09 08:35:51;;;;;;;6.37;1.30;;;;;;;;;;5053133;28;20445;-82
2022/06/09 08:38:18;;;;;;;4.40;1.80;;;;;;;;;;5057476;28;20441;-81
2022/06/09 08:40:49;;;;;;;4.43;2.03;;;;;;;;;;5056891;28;20843;-80
2022/06/09 08:43:22;;;;;;;6.87;2.03;;;;;;;;;;5057218;28;20453;-81
2022/06/09 08:45:49;;;;;;;7.13;1.60;;;;;;;;;;5057503;28;20881;-80
2022/06/09 08:48:19;;;;;;;4.33;1.27;;;;;;;;;;5060096;28;20453;-80
2022/06/09 08:50:49;;;;;;;4.23;1.17;;;;;;;;;;5066463;28;20481;-80
2022/06/09 08:53:19;;;;;;;8.57;1.70;;;;;;;;;;5068440;28;20438;-81
2022/06/09 08:55:47;;;;;;;2.53;1.40;;;;;;;;;;5068489;28;20623;-80
2022/06/09 08:58:16;;;;;;;3.23;1.53;;;;;;;;;;5065115;28;20502;-80
2022/06/09 09:00:45;;;;;;;3.77;1.77;;;;;;;;;;5066734;28;20461;-81
2022/06/09 09:03:17;;;;;;;6.10;1.20;;;;;;;;;;5064025;28;20426;-80
2022/06/09 09:05:46;;;;;;;3.10;1.30;;;;;;;;;;5064235;28;20438;-80
2022/06/09 09:08:14;;;;;;;3.90;1.37;;;;;;;;;;5062847;28;20857;-80
2022/06/09 09:10:48;;;;;;;5.10;1.70;;;;;;;;;;5064850;28;20489;-80
2022/06/09 09:13:24;;;;;;;4.57;1.60;;;;;;;;;;5062318;28;20434;-80
2022/06/09 09:15:54;;;;;;;2.30;1.37;;;;;;;;;;5067762;28;20449;-80
2022/06/09 09:18:26;;;;;;;3.30;1.30;;;;;;;;;;5067833;28;20503;-81
2022/06/09 09:20:58;;;;;;;2.23;1.27;;;;;;;;;;5067047;28;20525;-80
2022/06/09 09:23:28;;;;;;;3.57;1.40;;;;;;;;;;5060931;28;20857;-80
2022/06/09 09:25:58;;;;;;;3.30;1.93;;;;;;;;;;5060826;28;20515;-80
2022/06/09 09:28:27;;;;;;;7.67;1.80;;;;;;;;;;5061668;28;20434;-82
2022/06/09 09:31:00;;;;;;;3.60;1.77;;;;;;;;;;5060835;28;20846;-81
2022/06/09 09:33:28;;;;;;;3.70;1.33;;;;;;;;;;5063477;28;20477;-80
2022/06/09 09:35:57;;;;;;;6.80;1.60;;;;;;;;;;5064913;28;20512;-81
2022/06/09 09:38:27;;;;;;;2.77;1.53;;;;;;;;;;5061822;28;20507;-79
2022/06/09 09:41:00;;;;;;;3.10;1.43;;;;;;;;;;5061618;28;20531;-80
2022/06/09 09:43:34;;;;;;;3.80;1.53;;;;;;;;;;5062547;28;20491;-81
2022/06/09 09:46:02;;;;;;;1.60;1.20;;;;;;;;;;5064471;28;20505;-80
2022/06/09 09:48:31;;;;;;;1.23;1.10;;;;;;;;;;5062301;28;20437;-80
2022/06/09 09:50:59;;;;;;;4.40;1.57;;;;;;;;;;5063809;28;21030;-81
2022/06/09 09:53:29;;;;;;;1.80;1.00;;;;;;;;;;5063778;28;20493;-82
2022/06/09 09:55:57;;;;;;;1.40;1.13;;;;;;;;;;5059168;28;20454;-80
2022/06/09 09:58:28;;;;;;;1.50;0.90;;;;;;;;;;5056373;28;20531;-81
2022/06/09 10:00:56;;;;;;;3.60;1.27;;;;;;;;;;5055621;28;20472;-80
2022/06/09 10:09:06;;;;;;;3.27;1.60;;;;;;;;;;5055262;28;20427;-81
2022/06/09 10:14:31;;;;;;;4.57;1.27;;;;;;;;;;5051492;28;20438;-81
2022/06/09 10:17:01;;;;;;;2.20;1.20;;;;;;;;;;5042030;28;20453;-82
2022/06/09 10:19:32;;;;;;;1.70;1.00;;;;;;;;;;5054307;28;20808;-82
2022/06/09 10:22:00;;;;;;;4.63;1.63;;;;;;;;;;5054618;28;20964;-82
2022/06/09 10:24:30;;;;;;;4.10;1.60;;;;;;;;;;5054099;28;20507;-80
2022/06/09 10:26:57;;;;;;;1.17;1.07;;;;;;;;;;5055158;28;20488;-80
2022/06/09 10:29:28;;;;;;;2.07;1.10;;;;;;;;;;5054073;28;20454;-81
2022/06/09 10:32:27;;;;;;;3.30;1.50;;;;;;;;;;5053605;28;20433;-79
2022/06/09 10:35:14;;;;;;;1.60;1.10;;;;;;;;;;5051120;28;20450;-79
2022/06/09 10:37:44;;;;;;;2.97;1.10;;;;;;;;;;5051905;28;20523;-79
2022/06/09 10:40:15;;;;;;;2.67;1.10;;;;;;;;;;5052455;28;20468;-80
2022/06/09 10:42:53;;;;;;;2.83;1.33;;;;;;;;;;5054059;28;20437;-79
2022/06/09 10:45:23;;;;;;;4.03;1.17;;;;;;;;;;5053946;28;20963;-80
2022/06/09 10:56:36;;;;;;;2.57;1.00;;;;;;;;;;5054212;28;20513;-80
2022/06/09 10:59:07;;;;;;;2.70;1.10;;;;;;;;;;5052887;28;20469;-81
2022/06/09 11:01:34;;;;;;;2.40;1.10;;;;;;;;;;5053712;28;20925;-81
2022/06/09 11:04:05;;;;;;;2.50;1.30;;;;;;;;;;5053118;28;20611;-82
2022/06/09 11:06:40;;;;;;;2.87;1.57;;;;;;;;;;5053896;28;20495;-82
2022/06/09 11:09:12;;;;;;;3.70;1.60;;;;;;;;;;5053194;28;20449;-81
2022/06/09 11:11:46;;;;;;;1.80;0.80;;;;;;;;;;5053688;28;20462;-82
2022/06/09 11:14:21;;;;;;;2.60;1.17;;;;;;;;;;5053330;28;20489;-81
2022/06/09 11:16:52;;;;;;;3.70;1.13;;;;;;;;;;5053880;28;20433;-81
2022/06/09 11:19:37;;;;;;;2.10;1.40;;;;;;;;;;5053338;28;20470;-82
2022/06/09 11:22:10;;;;;;;1.80;1.10;;;;;;;;;;5038597;28;20511;-78
2022/06/09 11:24:40;;;;;;;2.77;1.37;;;;;;;;;;5053000;28;20422;-79
2022/06/09 11:27:13;;;;;;;2.67;1.40;;;;;;;;;;5053300;28;20437;-79
2022/06/09 11:29:50;;;;;;;2.97;1.33;;;;;;;;;;5049976;28;21008;-80
2022/06/09 11:32:21;;;;;;;3.17;1.30;;;;;;;;;;5033130;28;20529;-80
2022/06/09 11:35:04;;;;;;;2.93;1.30;;;;;;;;;;5040783;28;20854;-78
2022/06/09 11:37:42;;;;;;;2.20;1.33;;;;;;;;;;5039000;28;20442;-78
2022/06/09 11:40:17;;;;;;;3.30;1.67;;;;;;;;;;5043531;28;20465;-78
2022/06/09 11:42:53;;;;;;;2.50;1.47;;;;;;;;;;5052863;28;20422;-79
2022/06/09 11:45:25;;;;;;;3.47;1.40;;;;;;;;;;5051695;28;21015;-79
2022/06/09 11:47:53;;;;;;;8.93;1.50;;;;;;;;;;5051441;28;20422;-78
2022/06/09 11:50:21;;;;;;;3.23;1.30;;;;;;;;;;5051368;28;20493;-78
2022/06/09 11:52:50;;;;;;;2.70;1.40;;;;;;;;;;5052177;28;20872;-79
2022/06/09 11:55:57;;;;;;;5.10;1.93;;;;;;;;;;5052690;28;20441;-78
2022/06/09 11:58:30;;;;;;;3.10;1.87;;;;;;;;;;5052349;28;20437;-79
2022/06/09 12:01:16;;;;;;;4.20;1.67;;;;;;;;;;5052205;28;20457;-77
2022/06/09 12:03:58;;;;;;;4.17;1.77;;;;;;;;;;5052064;28;20418;-78
2022/06/09 12:06:27;;;;;;;2.60;1.40;;;;;;;;;;5054998;28;20428;-79
2022/06/09 12:09:02;;;;;;;3.60;1.50;;;;;;;;;;5057809;28;20472;-79
2022/06/09 12:11:44;;;;;;;3.00;1.33;;;;;;;;;;5055604;28;20944;-78
2022/06/09 12:14:18;;;;;;;2.90;1.30;;;;;;;;;;5056638;28;20430;-78
2022/06/09 12:16:56;;;;;;;2.00;1.50;;;;;;;;;;5058034;28;20441;-78
2022/06/09 12:19:24;;;;;;;3.40;1.70;;;;;;;;;;5060141;28;20484;-78
2022/06/09 12:21:53;;;;;;;1.80;1.10;;;;;;;;;;5055671;28;20485;-79
2022/06/09 12:24:30;;;;;;;2.37;1.20;;;;;;;;;;5053040;28;20437;-78
2022/06/09 12:27:05;;;;;;;2.00;1.00;;;;;;;;;;5053051;28;20520;-78
2022/06/09 12:29:44;;;;;;;1.30;1.20;;;;;;;;;;5052894;28;20465;-79
2022/06/09 12:32:32;;;;;;;2.40;1.40;;;;;;;;;;5052937;28;21147;-79
2022/06/09 12:35:00;;;;;;;1.87;1.20;;;;;;;;;;5053712;28;20449;-79
2022/06/09 12:37:30;;;;;;;4.97;1.40;;;;;;;;;;5053796;28;20930;-80
2022/06/09 12:40:01;;;;;;;3.63;1.40;;;;;;;;;;5052573;28;20450;-78
2022/06/09 12:42:32;;;;;;;2.07;1.07;;;;;;;;;;5052775;28;20814;-79
2022/06/09 12:45:03;;;;;;;1.30;1.03;;;;;;;;;;5053492;28;20505;-78
2022/06/09 12:47:30;;;;;;;2.47;1.30;;;;;;;;;;5051711;28;20433;-77
2022/06/09 12:49:57;;;;;;;1.83;1.20;;;;;;;;;;5051680;28;20461;-77
2022/06/09 12:52:26;;;;;;;2.00;1.37;;;;;;;;;;5051838;28;20543;-78
2022/06/09 12:54:57;;;;;;;3.83;1.10;;;;;;;;;;5051875;28;20549;-78
2022/06/09 12:57:27;;;;;;;2.83;1.90;;;;;;;;;;5047570;28;20465;-79
2022/06/09 13:00:03;;;;;;;2.93;1.30;;;;;;;;;;5053579;28;20469;-77
2022/06/09 13:02:32;;;;;;;2.13;1.30;;;;;;;;;;5052973;28;20445;-77
2022/06/09 13:05:01;;;;;;;3.43;1.27;;;;;;;;;;5053135;28;20446;-78
2022/06/09 13:07:29;;;;;;;2.00;1.07;;;;;;;;;;5053261;28;20446;-78
2022/06/09 13:10:00;;;;;;;1.83;0.80;;;;;;;;;;5055795;28;21004;-79
2022/06/09 13:15:18;;;;;;;2.67;1.23;;;;;;;;;;5054767;28;20420;-80
2022/06/09 13:17:45;;;;;;;2.37;1.13;;;;;;;;;;5052388;28;20449;-80
2022/06/09 13:20:15;;;;;;;3.13;1.20;;;;;;;;;;5051670;28;20458;-77
2022/06/09 13:22:43;;;;;;;1.47;1.10;;;;;;;;;;5052499;28;20541;-78
2022/06/09 13:25:12;;;;;;;3.80;1.30;;;;;;;;;;5055292;28;20449;-78
2022/06/09 13:27:45;;;;;;;1.53;1.10;;;;;;;;;;5054933;28;20445;-78
2022/06/09 13:30:29;;;;;;;2.00;1.20;;;;;;;;;;5047838;28;20477;-77
2022/06/09 13:32:57;;;;;;;4.83;1.70;;;;;;;;;;5055459;28;20429;-78
2022/06/09 13:35:38;;;;;;;1.73;1.20;;;;;;;;;;5055051;28;20437;-78
2022/06/09 13:38:07;;;;;;;7.87;1.43;;;;;;;;;;5055225;28;20441;-77
2022/06/09 13:40:42;;;;;;;2.77;1.20;;;;;;;;;;5054529;28;20461;-78
2022/06/09 13:43:16;;;;;;;2.70;1.53;;;;;;;;;;5054451;28;20421;-77
2022/06/09 13:45:50;;;;;;;2.50;1.20;;;;;;;;;;5055114;28;20449;-78
2022/06/09 13:48:19;;;;;;;1.80;1.30;;;;;;;;;;5055945;28;20544;-78
2022/06/09 13:50:48;;;;;;;2.83;1.00;;;;;;;;;;5056118;28;20473;-77
2022/06/09 13:53:17;;;;;;;3.10;1.27;;;;;;;;;;5055266;28;20441;-77
2022/06/09 13:55:45;;;;;;;1.43;1.23;;;;;;;;;;5054525;28;20453;-77
2022/06/09 13:58:12;;;;;;;2.53;1.60;;;;;;;;;;5055699;28;20441;-80
2022/06/09 14:00:43;;;;;;;5.07;1.40;;;;;;;;;;5055653;28;20520;-79
2022/06/09 14:03:14;;;;;;;4.40;2.20;;;;;;;;;;5055173;28;20445;-79
2022/06/09 14:05:43;;;;;;;3.50;1.47;;;;;;;;;;5055737;28;21177;-78
2022/06/09 14:08:11;;;;;;;4.03;1.30;;;;;;;;;;5055498;28;20500;-80
2022/06/09 14:10:38;;;;;;;4.07;1.17;;;;;;;;;;5054438;28;20477;-78
2022/06/09 14:13:05;;;;;;;5.43;1.47;;;;;;;;;;5054850;28;20445;-77
2022/06/09 14:15:34;;;;;;;2.50;1.23;;;;;;;;;;5054156;28;20437;-78
2022/06/09 14:18:03;;;;;;;2.30;1.40;;;;;;;;;;5053049;28;20881;-79
2022/06/09 14:20:32;;;;;;;2.97;1.80;;;;;;;;;;5053001;28;20465;-79
2022/06/09 14:22:59;;;;;;;2.90;2.10;;;;;;;;;;5053635;28;20449;-79
2022/06/09 14:25:27;;;;;;;3.80;1.67;;;;;;;;;;5053086;28;20941;-79
2022/06/09 14:27:55;;;;;;;2.73;1.60;;;;;;;;;;5050644;28;20453;-79
2022/06/09 14:30:23;;;;;;;3.43;1.67;;;;;;;;;;5053400;28;20504;-78
2022/06/09 14:32:50;;;;;;;4.70;1.70;;;;;;;;;;5052692;28;21179;-79
2022/06/09 14:35:18;;;;;;;4.83;2.10;;;;;;;;;;5052680;28;20499;-78
2022/06/09 14:37:46;;;;;;;5.63;2.30;;;;;;;;;;5052294;28;20448;-77
2022/06/09 14:40:21;;;;;;;2.80;1.80;;;;;;;;;;5052735;28;20461;-77
2022/06/09 14:42:48;;;;;;;3.00;1.77;;;;;;;;;;5052990;28;20468;-78
2022/06/09 14:45:15;;;;;;;2.27;1.60;;;;;;;;;;5051945;28;20877;-77
2022/06/09 14:47:42;;;;;;;4.57;2.13;;;;;;;;;;5052315;28;20441;-77
2022/06/09 14:50:09;;;;;;;4.30;2.23;;;;;;;;;;5051713;28;20469;-77
2022/06/09 14:52:39;;;;;;;3.00;2.10;;;;;;;;;;5051560;28;21153;-77
2022/06/09 14:55:16;;;;;;;2.13;1.90;;;;;;;;;;5052493;28;20455;-77
2022/06/09 14:57:50;;;;;;;2.50;2.20;;;;;;;;;;5052191;28;20405;-77
2022/06/09 15:00:18;;;;;;;3.80;2.00;;;;;;;;;;5051501;28;20553;-77
2022/06/09 15:02:45;;;;;;;2.30;1.70;;;;;;;;;;5051516;28;20441;-78
2022/06/09 15:05:16;;;;;;;1.90;1.57;;;;;;;;;;5051656;28;20438;-77
2022/06/09 15:07:45;;;;;;;3.03;1.33;;;;;;;;;;5051986;28;20437;-77
2022/06/09 15:10:14;;;;;;;2.23;1.63;;;;;;;;;;5057319;28;20501;-77
2022/06/09 15:12:41;;;;;;;2.50;1.30;;;;;;;;;;5053297;28;20902;-78
2022/06/09 15:15:09;;;;;;;4.77;1.30;;;;;;;;;;5051674;28;20500;-77
2022/06/09 15:17:36;;;;;;;2.97;1.50;;;;;;;;;;5051064;28;20957;-78
2022/06/09 15:20:04;;;;;;;3.30;1.73;;;;;;;;;;5051327;28;20488;-77
2022/06/09 15:22:31;;;;;;;2.17;1.93;;;;;;;;;;5051383;28;20446;-79
2022/06/09 15:24:59;;;;;;;2.57;1.60;;;;;;;;;;5051405;28;21260;-78
2022/06/09 15:27:26;;;;;;;1.90;1.30;;;;;;;;;;5051651;28;20438;-78